Time;durP1;ratioP1;P1;durP2;ratioP2;P2;SDS_P1;SDS_P2;PMS_P1;PMS_P2;Temp;Humidity;BMP_temperature;BMP_pressure;BME280_temperature;BME280_humidity;BME280_pressure;Samples;Min_cycle;Max_cycle;Signal;HPM_P1;HPM_P2
2022/04/17 00:01:02;;;;;;;6.88;3.25;;;;;;;;;;5069636;28;20063;-68
2022/04/17 00:03:30;;;;;;;13.10;3.30;;;;;;;;;;5068423;28;20059;-68
2022/04/17 00:05:56;;;;;;;13.52;3.55;;;;;;;;;;5069324;28;20056;-68
2022/04/17 00:08:22;;;;;;;6.50;3.13;;;;;;;;;;5069223;28;20088;-68
2022/04/17 00:10:49;;;;;;;8.60;3.75;;;;;;;;;;5050614;28;20053;-67
2022/04/17 00:13:15;;;;;;;7.55;3.63;;;;;;;;;;5068613;28;20144;-68
2022/04/17 00:15:42;;;;;;;7.85;3.58;;;;;;;;;;5069251;28;20072;-68
2022/04/17 00:18:09;;;;;;;8.07;3.60;;;;;;;;;;5068982;28;20088;-68
2022/04/17 00:20:36;;;;;;;7.95;3.75;;;;;;;;;;5067941;28;20136;-68
2022/04/17 00:23:03;;;;;;;6.90;3.55;;;;;;;;;;5068502;28;20049;-69
2022/04/17 00:25:29;;;;;;;7.53;3.65;;;;;;;;;;5068403;28;20073;-68
2022/04/17 00:27:55;;;;;;;9.02;4.15;;;;;;;;;;5068168;28;20053;-68
2022/04/17 00:30:22;;;;;;;9.02;4.00;;;;;;;;;;5069118;28;20176;-68
2022/04/17 00:32:48;;;;;;;6.70;3.50;;;;;;;;;;5068561;28;20049;-67
2022/04/17 00:35:14;;;;;;;7.43;3.67;;;;;;;;;;5067687;28;20063;-68
2022/04/17 00:37:41;;;;;;;7.82;3.63;;;;;;;;;;5068184;28;20057;-68
2022/04/17 00:40:07;;;;;;;6.85;3.58;;;;;;;;;;5068352;28;20056;-68
2022/04/17 00:42:34;;;;;;;9.23;3.53;;;;;;;;;;5067927;28;20147;-68
2022/04/17 00:45:00;;;;;;;7.47;3.70;;;;;;;;;;5067458;28;20093;-68
2022/04/17 00:47:26;;;;;;;8.75;4.28;;;;;;;;;;5067984;28;20511;-68
2022/04/17 00:49:53;;;;;;;6.95;3.25;;;;;;;;;;5068658;28;20139;-68
2022/04/17 00:52:20;;;;;;;8.75;3.33;;;;;;;;;;5068038;28;20070;-68
2022/04/17 00:54:47;;;;;;;7.85;4.20;;;;;;;;;;5067398;28;20065;-67
2022/04/17 00:57:18;;;;;;;6.53;3.42;;;;;;;;;;5067440;28;20139;-68
2022/04/17 00:59:45;;;;;;;8.43;3.78;;;;;;;;;;5067537;28;20132;-67
2022/04/17 01:02:14;;;;;;;11.03;4.47;;;;;;;;;;5068209;28;20140;-69
2022/04/17 01:04:41;;;;;;;7.82;4.05;;;;;;;;;;5068394;28;20057;-68
2022/04/17 01:07:08;;;;;;;10.60;4.13;;;;;;;;;;5068439;28;20048;-67
2022/04/17 01:09:35;;;;;;;7.53;4.00;;;;;;;;;;5066780;28;20465;-67
2022/04/17 01:12:01;;;;;;;7.38;3.95;;;;;;;;;;5067545;28;20132;-67
2022/04/17 01:14:28;;;;;;;8.20;4.38;;;;;;;;;;5068005;28;20068;-68
2022/04/17 01:16:55;;;;;;;8.32;3.88;;;;;;;;;;5067554;28;20172;-68
2022/04/17 01:19:22;;;;;;;6.55;3.83;;;;;;;;;;5068232;28;20143;-68
2022/04/17 01:21:49;;;;;;;8.48;4.00;;;;;;;;;;5049720;28;20646;-67
2022/04/17 01:27:03;;;;;;;8.00;3.85;;;;;;;;;;5068246;28;20181;-67
2022/04/17 01:29:31;;;;;;;;;;;;;;;;;;5067557;28;20084;-68
2022/04/17 01:31:58;;;;;;;8.43;4.03;;;;;;;;;;5067039;28;45598;-67
2022/04/17 01:34:25;;;;;;;7.95;4.30;;;;;;;;;;5049043;28;20139;-67
2022/04/17 01:36:51;;;;;;;7.97;4.13;;;;;;;;;;5067517;28;20953;-68
2022/04/17 01:39:18;;;;;;;9.75;3.88;;;;;;;;;;5067620;28;20057;-67
2022/04/17 01:41:46;;;;;;;6.90;3.92;;;;;;;;;;5068023;28;20624;-68
2022/04/17 01:44:12;;;;;;;9.48;4.25;;;;;;;;;;5067392;28;20053;-68
2022/04/17 01:46:39;;;;;;;7.90;4.13;;;;;;;;;;5067275;28;20061;-67
2022/04/17 01:49:05;;;;;;;9.32;4.32;;;;;;;;;;5067927;28;20144;-68
2022/04/17 01:51:38;;;;;;;10.98;4.13;;;;;;;;;;5067281;28;20160;-67
2022/04/17 01:54:09;;;;;;;8.27;4.18;;;;;;;;;;5067323;28;20140;-67
2022/04/17 01:56:36;;;;;;;9.95;3.78;;;;;;;;;;5067422;28;20150;-67
2022/04/17 01:59:04;;;;;;;10.30;4.13;;;;;;;;;;5066699;28;20049;-68
2022/04/17 02:01:30;;;;;;;8.52;4.18;;;;;;;;;;5067078;28;20226;-67
2022/04/17 02:03:57;;;;;;;7.68;3.80;;;;;;;;;;5067387;28;20080;-67
2022/04/17 02:06:23;;;;;;;8.68;3.83;;;;;;;;;;5070773;28;20045;-67
2022/04/17 02:08:51;;;;;;;7.63;3.80;;;;;;;;;;5070500;28;20487;-67
2022/04/17 02:11:21;;;;;;;10.02;4.00;;;;;;;;;;5070695;28;20053;-67
2022/04/17 02:13:48;;;;;;;8.10;4.05;;;;;;;;;;5070570;28;20053;-67
2022/04/17 02:16:17;;;;;;;10.05;3.63;;;;;;;;;;5071445;28;20084;-68
2022/04/17 02:18:44;;;;;;;8.95;4.20;;;;;;;;;;5071111;28;20080;-67
2022/04/17 02:21:11;;;;;;;7.25;3.72;;;;;;;;;;5071007;28;20522;-67
2022/04/17 02:23:37;;;;;;;7.53;3.90;;;;;;;;;;5069687;28;20148;-69
2022/04/17 02:26:03;;;;;;;7.43;3.38;;;;;;;;;;5070362;28;20523;-67
2022/04/17 02:28:34;;;;;;;8.30;4.22;;;;;;;;;;5070338;28;20150;-67
2022/04/17 02:31:01;;;;;;;7.55;3.83;;;;;;;;;;5070172;28;20152;-68
2022/04/17 02:33:28;;;;;;;8.57;4.15;;;;;;;;;;5070459;28;20687;-68
2022/04/17 02:35:54;;;;;;;7.05;3.67;;;;;;;;;;5070546;28;20067;-67
2022/04/17 02:38:20;;;;;;;8.90;3.92;;;;;;;;;;5070632;28;20581;-67
2022/04/17 02:40:47;;;;;;;8.15;4.10;;;;;;;;;;5070489;28;20530;-67
2022/04/17 02:43:13;;;;;;;9.05;4.13;;;;;;;;;;5070482;28;20049;-67
2022/04/17 02:45:40;;;;;;;8.32;3.78;;;;;;;;;;5070164;28;20052;-67
2022/04/17 02:48:06;;;;;;;7.93;3.80;;;;;;;;;;5069847;28;20056;-67
2022/04/17 02:50:33;;;;;;;8.32;4.03;;;;;;;;;;5070388;28;20147;-67
2022/04/17 02:52:59;;;;;;;8.68;4.10;;;;;;;;;;5070621;28;20537;-67
2022/04/17 02:55:26;;;;;;;9.75;4.65;;;;;;;;;;5069561;28;20056;-67
2022/04/17 02:57:54;;;;;;;7.68;4.28;;;;;;;;;;5070253;28;20063;-67
2022/04/17 03:00:21;;;;;;;10.45;4.30;;;;;;;;;;5070692;28;20147;-67
2022/04/17 03:05:38;;;;;;;8.40;4.25;;;;;;;;;;5069742;28;20049;-67
2022/04/17 03:08:07;;;;;;;8.52;4.43;;;;;;;;;;5070078;28;20067;-67
2022/04/17 03:10:33;;;;;;;;;;;;;;;;;;5070548;28;20099;-67
2022/04/17 03:13:00;;;;;;;10.07;4.38;;;;;;;;;;5068151;28;45361;-67
2022/04/17 03:15:26;;;;;;;10.10;4.25;;;;;;;;;;5051072;28;20154;-67
2022/04/17 03:17:53;;;;;;;9.38;4.35;;;;;;;;;;5069608;28;20498;-67
2022/04/17 03:20:19;;;;;;;7.55;4.22;;;;;;;;;;5070457;28;20485;-67
2022/04/17 03:22:45;;;;;;;8.98;4.05;;;;;;;;;;5069945;28;20081;-67
2022/04/17 03:25:12;;;;;;;7.15;4.05;;;;;;;;;;5070026;28;20187;-67
2022/04/17 03:27:40;;;;;;;8.20;4.13;;;;;;;;;;5069842;28;20165;-67
2022/04/17 03:30:06;;;;;;;8.50;3.87;;;;;;;;;;5070222;28;20073;-68
2022/04/17 03:32:33;;;;;;;8.52;4.13;;;;;;;;;;5069761;28;20053;-68
2022/04/17 03:34:59;;;;;;;10.70;4.47;;;;;;;;;;5069101;28;20049;-68
2022/04/17 03:37:25;;;;;;;10.07;4.63;;;;;;;;;;5068615;28;20059;-67
2022/04/17 03:39:53;;;;;;;9.10;4.50;;;;;;;;;;5068727;28;20059;-67
2022/04/17 03:42:21;;;;;;;10.95;4.50;;;;;;;;;;5069900;28;20142;-68
2022/04/17 03:44:47;;;;;;;8.98;4.30;;;;;;;;;;5069887;28;20531;-67
2022/04/17 03:47:14;;;;;;;11.02;4.45;;;;;;;;;;5069499;28;20143;-66
2022/04/17 03:49:40;;;;;;;9.30;4.38;;;;;;;;;;5069189;28;20137;-68
2022/04/17 03:52:06;;;;;;;9.55;4.75;;;;;;;;;;5068825;28;20143;-66
2022/04/17 03:54:33;;;;;;;9.30;4.93;;;;;;;;;;5050589;28;20143;-67
2022/04/17 03:56:59;;;;;;;11.80;4.90;;;;;;;;;;5069271;28;20577;-66
2022/04/17 03:59:25;;;;;;;11.73;5.15;;;;;;;;;;5068388;28;20144;-67
2022/04/17 04:01:52;;;;;;;10.60;5.13;;;;;;;;;;5068567;28;20147;-66
2022/04/17 04:04:19;;;;;;;11.48;5.13;;;;;;;;;;5069652;28;20455;-66
2022/04/17 04:06:45;;;;;;;9.23;4.78;;;;;;;;;;5069444;28;20527;-66
2022/04/17 04:09:11;;;;;;;9.57;5.05;;;;;;;;;;5069075;28;20140;-67
2022/04/17 04:11:38;;;;;;;11.63;5.10;;;;;;;;;;5068670;28;20172;-67
2022/04/17 04:14:05;;;;;;;11.63;5.13;;;;;;;;;;5068288;28;20153;-66
2022/04/17 04:16:31;;;;;;;9.35;4.97;;;;;;;;;;5068757;28;20174;-66
2022/04/17 04:18:58;;;;;;;10.13;5.13;;;;;;;;;;5069525;28;20049;-66
2022/04/17 04:21:24;;;;;;;10.38;4.95;;;;;;;;;;5068611;28;20862;-66
2022/04/17 04:23:51;;;;;;;8.70;4.63;;;;;;;;;;5068519;28;20063;-66
2022/04/17 04:26:17;;;;;;;9.30;4.68;;;;;;;;;;5067809;28;20475;-67
2022/04/17 04:28:43;;;;;;;8.65;4.75;;;;;;;;;;5068072;28;20140;-66
2022/04/17 04:31:10;;;;;;;10.70;5.50;;;;;;;;;;5069061;28;20139;-66
2022/04/17 04:33:38;;;;;;;11.10;5.38;;;;;;;;;;5068375;28;20163;-66
2022/04/17 04:36:05;;;;;;;9.85;5.35;;;;;;;;;;5069190;28;20067;-67
2022/04/17 04:38:32;;;;;;;11.52;5.65;;;;;;;;;;5068847;28;20156;-66
2022/04/17 04:41:01;;;;;;;12.68;5.95;;;;;;;;;;5068276;28;20609;-67
2022/04/17 04:43:28;;;;;;;10.15;5.40;;;;;;;;;;5068752;28;20053;-66
2022/04/17 04:46:06;;;;;;;10.88;5.70;;;;;;;;;;5068036;28;20083;-66
2022/04/17 04:51:19;;;;;;;11.40;5.45;;;;;;;;;;5067649;28;20483;-67
2022/04/17 04:53:45;;;;;;;12.23;5.68;;;;;;;;;;5068497;28;20053;-67
2022/04/17 04:56:13;;;;;;;9.80;5.55;;;;;;;;;;5068257;28;20136;-67
2022/04/17 04:58:40;;;;;;;11.40;5.28;;;;;;;;;;5067623;28;20057;-66
2022/04/17 05:01:06;;;;;;;12.10;5.80;;;;;;;;;;5068340;28;20673;-68
2022/04/17 05:03:34;;;;;;;12.35;5.30;;;;;;;;;;5067566;28;20049;-67
2022/04/17 05:06:00;;;;;;;10.43;5.65;;;;;;;;;;5068057;28;20060;-67
2022/04/17 05:08:26;;;;;;;11.90;5.60;;;;;;;;;;5068069;28;20053;-68
2022/04/17 05:10:55;;;;;;;11.45;5.20;;;;;;;;;;5067917;28;20056;-68
2022/04/17 05:13:22;;;;;;;9.90;5.82;;;;;;;;;;5069137;28;20053;-67
2022/04/17 05:15:48;;;;;;;14.73;6.57;;;;;;;;;;5067344;28;20455;-67
2022/04/17 05:18:15;;;;;;;12.68;5.65;;;;;;;;;;5067036;28;20049;-67
2022/04/17 05:20:41;;;;;;;11.57;5.68;;;;;;;;;;5067938;28;20561;-68
2022/04/17 05:23:17;;;;;;;10.73;5.95;;;;;;;;;;5067717;28;20053;-67
2022/04/17 05:25:47;;;;;;;15.43;5.93;;;;;;;;;;5067700;28;20076;-67
2022/04/17 05:28:14;;;;;;;10.93;5.88;;;;;;;;;;5067590;28;20503;-67
2022/04/17 05:30:41;;;;;;;11.02;5.78;;;;;;;;;;5067583;28;20152;-67
2022/04/17 05:33:07;;;;;;;11.43;5.60;;;;;;;;;;5067375;28;20055;-67
2022/04/17 05:35:34;;;;;;;12.52;5.88;;;;;;;;;;5068245;28;20044;-67
2022/04/17 05:38:00;;;;;;;10.73;6.18;;;;;;;;;;5067533;28;20186;-67
2022/04/17 05:40:27;;;;;;;15.43;6.43;;;;;;;;;;5066876;28;20084;-67
2022/04/17 05:42:54;;;;;;;13.10;5.75;;;;;;;;;;5067005;28;20084;-67
2022/04/17 05:45:22;;;;;;;11.70;6.03;;;;;;;;;;5067468;28;20052;-67
2022/04/17 05:47:48;;;;;;;12.63;6.32;;;;;;;;;;5067530;28;20051;-67
2022/04/17 05:50:14;;;;;;;12.45;6.05;;;;;;;;;;5066942;28;20490;-68
2022/04/17 05:52:41;;;;;;;13.98;6.13;;;;;;;;;;5066535;28;20099;-67
2022/04/17 05:55:11;;;;;;;11.77;5.95;;;;;;;;;;5067983;28;20063;-68
2022/04/17 05:57:37;;;;;;;11.85;5.97;;;;;;;;;;5066988;28;20517;-65
2022/04/17 06:00:08;;;;;;;11.90;5.97;;;;;;;;;;5067201;28;20443;-66
2022/04/17 06:02:35;;;;;;;10.88;4.80;;;;;;;;;;5066796;28;20103;-68
2022/04/17 06:05:03;;;;;;;10.35;5.68;;;;;;;;;;5066440;28;20058;-67
2022/04/17 06:07:30;;;;;;;13.47;6.07;;;;;;;;;;5066952;28;20055;-65
2022/04/17 06:10:00;;;;;;;11.88;6.00;;;;;;;;;;5067263;28;20136;-67
2022/04/17 06:12:26;;;;;;;11.45;5.95;;;;;;;;;;5067021;28;20579;-66
2022/04/17 06:14:52;;;;;;;10.70;5.82;;;;;;;;;;5067192;28;20181;-66
2022/04/17 06:17:18;;;;;;;14.52;5.63;;;;;;;;;;5067655;28;20545;-66
2022/04/17 06:19:45;;;;;;;13.38;6.28;;;;;;;;;;5066735;28;20061;-66
2022/04/17 06:22:11;;;;;;;11.57;6.18;;;;;;;;;;5066673;28;20143;-66
2022/04/17 06:24:37;;;;;;;11.35;5.22;;;;;;;;;;5066824;28;20057;-66
2022/04/17 06:27:04;;;;;;;9.55;5.13;;;;;;;;;;5066733;28;20077;-66
2022/04/17 06:29:30;;;;;;;10.95;5.55;;;;;;;;;;5065980;28;20177;-66
2022/04/17 06:31:57;;;;;;;13.27;5.10;;;;;;;;;;5067674;28;20059;-66
2022/04/17 06:34:23;;;;;;;12.18;5.50;;;;;;;;;;5066771;28;20639;-66
2022/04/17 06:36:50;;;;;;;10.30;4.95;;;;;;;;;;5066759;28;20053;-66
2022/04/17 06:39:16;;;;;;;10.68;5.45;;;;;;;;;;5067169;28;20063;-66
2022/04/17 06:41:44;;;;;;;11.18;4.82;;;;;;;;;;5066895;28;20147;-66
2022/04/17 06:44:11;;;;;;;10.52;4.60;;;;;;;;;;5066830;28;20132;-66
2022/04/17 06:46:38;;;;;;;11.90;5.00;;;;;;;;;;5066744;28;20080;-66
2022/04/17 06:49:08;;;;;;;9.93;4.57;;;;;;;;;;5066473;28;20049;-66
2022/04/17 06:51:34;;;;;;;9.73;4.63;;;;;;;;;;5069183;28;20063;-67
2022/04/17 06:54:01;;;;;;;10.88;4.38;;;;;;;;;;5069373;28;20080;-66
2022/04/17 06:56:27;;;;;;;11.73;4.80;;;;;;;;;;5069721;28;20056;-66
2022/04/17 06:58:53;;;;;;;9.43;4.13;;;;;;;;;;5070128;28;20140;-66
2022/04/17 07:01:20;;;;;;;10.05;4.90;;;;;;;;;;5070397;28;20080;-66
2022/04/17 07:03:46;;;;;;;10.13;4.55;;;;;;;;;;5070145;28;20045;-67
2022/04/17 07:06:13;;;;;;;8.95;4.53;;;;;;;;;;5070053;28;20145;-66
2022/04/17 07:08:39;;;;;;;7.38;3.85;;;;;;;;;;5069712;28;20057;-66
2022/04/17 07:11:05;;;;;;;8.73;4.88;;;;;;;;;;5069938;28;20053;-66
2022/04/17 07:13:32;;;;;;;9.13;4.90;;;;;;;;;;5069563;28;20442;-66
2022/04/17 07:15:59;;;;;;;9.50;4.88;;;;;;;;;;5069628;28;20522;-66
2022/04/17 07:18:25;;;;;;;9.80;4.88;;;;;;;;;;5068785;28;20049;-67
2022/04/17 07:20:51;;;;;;;10.98;4.93;;;;;;;;;;5069777;28;20892;-66
2022/04/17 07:23:18;;;;;;;11.10;5.35;;;;;;;;;;5070605;28;20188;-66
2022/04/17 07:25:44;;;;;;;6.65;4.03;;;;;;;;;;5068979;28;20053;-66
2022/04/17 07:28:14;;;;;;;7.93;4.28;;;;;;;;;;5069558;28;20104;-67
2022/04/17 07:30:42;;;;;;;7.93;4.45;;;;;;;;;;5069358;28;20139;-66
2022/04/17 07:33:09;;;;;;;9.55;4.47;;;;;;;;;;5069693;28;20056;-67
2022/04/17 07:35:35;;;;;;;9.60;4.63;;;;;;;;;;5069505;28;20056;-66
2022/04/17 07:38:02;;;;;;;8.30;4.70;;;;;;;;;;5069334;28;20226;-66
2022/04/17 07:40:30;;;;;;;8.40;3.95;;;;;;;;;;5069157;28;20438;-66
2022/04/17 07:42:58;;;;;;;10.15;4.68;;;;;;;;;;5069166;28;20144;-67
2022/04/17 07:45:25;;;;;;;8.93;4.28;;;;;;;;;;5069464;28;20581;-66
2022/04/17 07:47:51;;;;;;;9.65;4.18;;;;;;;;;;5069304;28;20045;-66
2022/04/17 07:50:19;;;;;;;7.18;4.05;;;;;;;;;;5069331;28;20654;-66
2022/04/17 07:52:45;;;;;;;8.32;3.95;;;;;;;;;;5069187;28;21316;-66
2022/04/17 07:55:15;;;;;;;8.38;3.97;;;;;;;;;;5069275;28;20063;-66
2022/04/17 07:58:04;;;;;;;10.88;3.42;;;;;;;;;;5069494;28;20566;-66
2022/04/17 08:00:32;;;;;;;6.70;2.97;;;;;;;;;;5069208;28;20518;-67
2022/04/17 08:03:21;;;;;;;8.00;3.58;;;;;;;;;;5067906;28;20052;-67
2022/04/17 08:05:48;;;;;;;6.18;2.97;;;;;;;;;;5069634;28;20140;-66
2022/04/17 08:08:15;;;;;;;5.13;3.08;;;;;;;;;;5068152;28;20571;-67
2022/04/17 08:10:41;;;;;;;5.88;3.28;;;;;;;;;;5069015;28;20053;-67
2022/04/17 08:13:07;;;;;;;8.43;3.03;;;;;;;;;;5068715;28;20502;-67
2022/04/17 08:15:34;;;;;;;5.47;2.70;;;;;;;;;;5067959;28;20509;-67
2022/04/17 08:18:00;;;;;;;7.32;3.25;;;;;;;;;;5068603;28;20049;-67
2022/04/17 08:20:26;;;;;;;8.00;3.20;;;;;;;;;;5068428;28;20065;-66
2022/04/17 08:22:53;;;;;;;6.50;3.25;;;;;;;;;;5069481;28;20136;-67
2022/04/17 08:25:19;;;;;;;7.80;3.05;;;;;;;;;;5068736;28;20156;-67
2022/04/17 08:27:47;;;;;;;6.03;2.80;;;;;;;;;;5068684;28;20139;-67
2022/04/17 08:30:18;;;;;;;7.88;3.30;;;;;;;;;;5068623;28;20130;-66
2022/04/17 08:32:44;;;;;;;6.05;3.03;;;;;;;;;;5067217;28;20061;-67
2022/04/17 08:35:10;;;;;;;5.10;2.65;;;;;;;;;;5068455;28;20099;-67
2022/04/17 08:37:37;;;;;;;6.07;2.80;;;;;;;;;;5067610;28;20049;-66
2022/04/17 08:40:04;;;;;;;8.63;3.17;;;;;;;;;;5068657;28;20140;-66
2022/04/17 08:42:30;;;;;;;5.78;3.00;;;;;;;;;;5068273;28;20164;-66
2022/04/17 08:44:57;;;;;;;6.07;2.78;;;;;;;;;;5068084;28;20140;-67
2022/04/17 08:47:24;;;;;;;5.82;3.00;;;;;;;;;;5068140;28;20057;-67
2022/04/17 08:49:50;;;;;;;6.97;3.50;;;;;;;;;;5068327;28;20055;-67
2022/04/17 08:52:17;;;;;;;6.40;3.08;;;;;;;;;;5068756;28;20538;-67
2022/04/17 08:54:44;;;;;;;5.68;3.15;;;;;;;;;;5068108;28;20658;-67
2022/04/17 08:57:11;;;;;;;7.90;3.50;;;;;;;;;;5067676;28;20172;-67
2022/04/17 08:59:38;;;;;;;8.18;3.30;;;;;;;;;;5068063;28;20057;-67
2022/04/17 09:02:05;;;;;;;7.90;3.20;;;;;;;;;;5067964;28;20052;-67
2022/04/17 09:04:32;;;;;;;9.00;3.20;;;;;;;;;;5067912;28;20885;-68
2022/04/17 09:06:59;;;;;;;11.95;4.10;;;;;;;;;;5068031;28;20754;-67
2022/04/17 09:09:26;;;;;;;6.68;3.45;;;;;;;;;;5067993;28;20057;-67
2022/04/17 09:11:55;;;;;;;7.28;4.05;;;;;;;;;;5068446;28;20123;-67
2022/04/17 09:14:22;;;;;;;8.40;4.00;;;;;;;;;;5067865;28;20061;-67
2022/04/17 09:16:51;;;;;;;10.40;4.63;;;;;;;;;;5067742;28;20044;-67
2022/04/17 09:19:18;;;;;;;7.93;4.53;;;;;;;;;;5067175;28;20057;-67
2022/04/17 09:21:45;;;;;;;9.57;4.80;;;;;;;;;;5066982;28;20049;-67
2022/04/17 09:24:18;;;;;;;8.43;4.10;;;;;;;;;;5068531;28;20056;-67
2022/04/17 09:26:50;;;;;;;10.02;4.30;;;;;;;;;;5067783;28;20573;-67
2022/04/17 09:29:18;;;;;;;8.70;4.35;;;;;;;;;;5067558;28;20127;-67
2022/04/17 09:31:45;;;;;;;8.48;4.30;;;;;;;;;;5067594;28;20055;-67
2022/04/17 09:34:11;;;;;;;10.80;4.45;;;;;;;;;;5067759;28;20048;-67
2022/04/17 09:36:38;;;;;;;8.02;3.90;;;;;;;;;;5068006;28;20179;-67
2022/04/17 09:39:14;;;;;;;7.38;4.35;;;;;;;;;;5066358;28;20063;-67
2022/04/17 09:42:03;;;;;;;8.70;4.25;;;;;;;;;;5067487;28;20170;-67
2022/04/17 09:44:38;;;;;;;7.55;4.15;;;;;;;;;;5065876;28;20053;-67
2022/04/17 09:47:07;;;;;;;7.18;3.97;;;;;;;;;;5066552;28;20143;-67
2022/04/17 09:49:52;;;;;;;7.40;4.03;;;;;;;;;;5066865;28;20059;-67
2022/04/17 09:52:18;;;;;;;9.68;4.70;;;;;;;;;;5068344;28;20057;-67
2022/04/17 09:54:47;;;;;;;8.52;3.67;;;;;;;;;;5066830;28;20598;-67
2022/04/17 09:57:13;;;;;;;;;;;;;;;;;;5067676;28;20053;-67
2022/04/17 09:59:39;;;;;;;7.68;3.90;;;;;;;;;;5066127;28;45755;-67
2022/04/17 10:02:06;;;;;;;7.82;3.78;;;;;;;;;;5067354;28;20139;-68
2022/04/17 10:04:35;;;;;;;5.85;2.65;;;;;;;;;;5067289;28;20057;-67
2022/04/17 10:07:04;;;;;;;6.18;2.60;;;;;;;;;;5067033;28;20140;-68
2022/04/17 10:09:31;;;;;;;7.50;3.03;;;;;;;;;;5067173;28;20059;-68
2022/04/17 10:11:59;;;;;;;5.03;2.78;;;;;;;;;;5066775;28;20151;-67
2022/04/17 10:14:29;;;;;;;8.05;3.10;;;;;;;;;;5067303;28;20060;-67
2022/04/17 10:16:57;;;;;;;6.75;2.90;;;;;;;;;;5067891;28;20057;-67
2022/04/17 10:19:24;;;;;;;4.55;1.92;;;;;;;;;;5067268;28;20515;-67
2022/04/17 10:21:51;;;;;;;5.95;2.15;;;;;;;;;;5067684;28;20055;-68
2022/04/17 10:24:18;;;;;;;4.68;2.22;;;;;;;;;;5067170;28;20053;-68
2022/04/17 10:26:49;;;;;;;6.82;2.53;;;;;;;;;;5068971;28;20180;-67
2022/04/17 10:29:20;;;;;;;5.15;2.28;;;;;;;;;;5070829;28;20128;-67
2022/04/17 10:32:13;;;;;;;7.18;2.70;;;;;;;;;;5069824;28;20187;-68
2022/04/17 10:34:58;;;;;;;4.85;2.88;;;;;;;;;;5045961;28;20610;-68
2022/04/17 10:37:24;;;;;;;5.68;2.40;;;;;;;;;;5069818;28;20445;-68
2022/04/17 10:39:53;;;;;;;5.93;2.72;;;;;;;;;;5070898;28;20519;-67
2022/04/17 10:42:20;;;;;;;7.65;2.70;;;;;;;;;;5070310;28;20049;-68
2022/04/17 10:45:00;;;;;;;6.65;2.78;;;;;;;;;;5070339;28;20053;-68
2022/04/17 10:47:27;;;;;;;5.95;3.10;;;;;;;;;;5070853;28;20112;-68
2022/04/17 10:49:56;;;;;;;6.13;3.05;;;;;;;;;;5070475;28;20143;-67
2022/04/17 10:52:32;;;;;;;6.57;3.15;;;;;;;;;;5070234;28;20585;-67
2022/04/17 10:55:08;;;;;;;8.30;2.88;;;;;;;;;;5069720;28;20057;-67
2022/04/17 10:57:48;;;;;;;6.63;2.85;;;;;;;;;;5069792;28;20064;-67
2022/04/17 11:00:27;;;;;;;6.15;2.83;;;;;;;;;;5070329;28;20152;-67
2022/04/17 11:03:19;;;;;;;5.63;2.85;;;;;;;;;;5069723;28;20053;-67
2022/04/17 11:08:44;;;;;;;7.95;2.97;;;;;;;;;;5070035;28;20055;-67
2022/04/17 11:11:11;;;;;;;5.32;2.80;;;;;;;;;;5070354;28;20056;-67
2022/04/17 11:13:37;;;;;;;5.30;2.72;;;;;;;;;;5069982;28;20430;-67
2022/04/17 11:16:06;;;;;;;6.40;2.97;;;;;;;;;;5069999;28;20064;-67
2022/04/17 11:18:33;;;;;;;7.18;2.95;;;;;;;;;;5070056;28;20140;-67
2022/04/17 11:21:00;;;;;;;5.53;2.85;;;;;;;;;;5069402;28;20169;-67
2022/04/17 11:23:45;;;;;;;6.88;2.90;;;;;;;;;;5069670;28;20061;-68
2022/04/17 11:26:11;;;;;;;7.93;3.17;;;;;;;;;;5069403;28;20059;-67
2022/04/17 11:28:38;;;;;;;5.40;2.53;;;;;;;;;;5068560;28;20063;-68
2022/04/17 11:31:04;;;;;;;5.57;3.17;;;;;;;;;;5069913;28;20143;-68
2022/04/17 11:33:30;;;;;;;8.13;2.90;;;;;;;;;;5069092;28;20059;-68
2022/04/17 11:35:58;;;;;;;6.40;2.95;;;;;;;;;;5069459;28;20051;-67
2022/04/17 11:38:24;;;;;;;6.60;2.90;;;;;;;;;;5069296;28;20140;-67
2022/04/17 11:40:51;;;;;;;5.40;2.67;;;;;;;;;;5069069;28;20160;-67
2022/04/17 11:43:18;;;;;;;5.75;2.67;;;;;;;;;;5069332;28;20053;-68
2022/04/17 11:45:45;;;;;;;7.18;3.15;;;;;;;;;;5069196;28;20076;-68
2022/04/17 11:48:13;;;;;;;6.85;2.95;;;;;;;;;;5069611;28;20067;-68
2022/04/17 11:50:40;;;;;;;6.45;3.22;;;;;;;;;;5068851;28;20148;-67
2022/04/17 11:53:11;;;;;;;5.60;3.17;;;;;;;;;;5068902;28;20442;-67
2022/04/17 11:55:38;;;;;;;6.28;3.38;;;;;;;;;;5068790;28;20151;-68
2022/04/17 11:58:08;;;;;;;7.40;3.23;;;;;;;;;;5068910;28;20550;-68
2022/04/17 12:00:39;;;;;;;5.28;2.88;;;;;;;;;;5068725;28;20292;-68
2022/04/17 12:03:06;;;;;;;5.57;2.88;;;;;;;;;;5069172;28;20144;-67
2022/04/17 12:05:34;;;;;;;5.43;2.63;;;;;;;;;;5069044;28;20063;-68
2022/04/17 12:08:02;;;;;;;7.75;2.60;;;;;;;;;;5069598;28;20515;-68
2022/04/17 12:10:28;;;;;;;6.80;2.55;;;;;;;;;;5069138;28;20051;-68
2022/04/17 12:12:55;;;;;;;5.88;2.47;;;;;;;;;;5068578;28;20060;-68
2022/04/17 12:15:22;;;;;;;6.22;2.88;;;;;;;;;;5068530;28;20065;-67
2022/04/17 12:17:59;;;;;;;6.28;2.63;;;;;;;;;;5068269;28;20049;-68
2022/04/17 12:20:26;;;;;;;5.00;2.75;;;;;;;;;;5068670;28;20052;-67
2022/04/17 12:22:53;;;;;;;6.07;2.80;;;;;;;;;;5069381;28;20151;-67
2022/04/17 12:25:21;;;;;;;4.30;2.55;;;;;;;;;;5068315;28;20049;-68
2022/04/17 12:27:48;;;;;;;5.72;2.78;;;;;;;;;;5068967;28;20053;-68
2022/04/17 12:30:17;;;;;;;6.07;2.55;;;;;;;;;;5068927;28;20139;-67
2022/04/17 12:32:44;;;;;;;5.45;2.70;;;;;;;;;;5068763;28;21412;-67
2022/04/17 12:35:14;;;;;;;6.38;2.63;;;;;;;;;;5068642;28;20156;-67
2022/04/17 12:37:40;;;;;;;6.00;3.25;;;;;;;;;;5068050;28;20059;-68
2022/04/17 12:40:07;;;;;;;7.03;2.83;;;;;;;;;;5068298;28;20096;-67
2022/04/17 12:42:34;;;;;;;6.82;3.00;;;;;;;;;;5067583;28;20554;-67
2022/04/17 12:45:00;;;;;;;5.20;2.72;;;;;;;;;;5068101;28;20141;-67
2022/04/17 12:47:26;;;;;;;6.65;3.03;;;;;;;;;;5068151;28;20060;-67
2022/04/17 12:50:01;;;;;;;6.18;3.10;;;;;;;;;;5068021;28;20064;-67
2022/04/17 12:52:27;;;;;;;6.18;2.97;;;;;;;;;;5068993;28;20096;-67
2022/04/17 12:54:56;;;;;;;5.25;2.78;;;;;;;;;;5068451;28;20179;-68
2022/04/17 12:57:22;;;;;;;7.05;3.05;;;;;;;;;;5068260;28;20201;-67
2022/04/17 12:59:50;;;;;;;5.55;2.85;;;;;;;;;;5068063;28;20052;-67
2022/04/17 13:02:17;;;;;;;5.18;2.88;;;;;;;;;;5068097;28;20056;-67
2022/04/17 13:04:45;;;;;;;5.67;2.70;;;;;;;;;;5068017;28;20057;-67
2022/04/17 13:07:13;;;;;;;6.15;3.38;;;;;;;;;;5067672;28;20287;-68
2022/04/17 13:09:53;;;;;;;6.53;3.28;;;;;;;;;;5067394;28;20108;-67
2022/04/17 13:12:35;;;;;;;8.30;2.83;;;;;;;;;;5067625;28;20530;-67
2022/04/17 13:15:06;;;;;;;5.25;2.75;;;;;;;;;;5068411;28;20061;-68
2022/04/17 13:17:48;;;;;;;5.93;2.58;;;;;;;;;;5067497;28;20052;-67
2022/04/17 13:20:16;;;;;;;6.45;2.90;;;;;;;;;;5068328;28;20409;-67
2022/04/17 13:22:43;;;;;;;5.47;3.05;;;;;;;;;;5068565;28;20084;-67
2022/04/17 13:25:10;;;;;;;5.60;2.90;;;;;;;;;;5067921;28;20045;-68
2022/04/17 13:27:36;;;;;;;5.00;2.65;;;;;;;;;;5068098;28;20059;-68
2022/04/17 13:30:03;;;;;;;5.85;2.97;;;;;;;;;;5067973;28;20076;-68
2022/04/17 13:32:30;;;;;;;5.97;2.57;;;;;;;;;;5065977;28;20057;-69
2022/04/17 13:34:56;;;;;;;6.10;2.67;;;;;;;;;;5068653;28;20366;-67
2022/04/17 13:40:08;;;;;;;5.28;2.30;;;;;;;;;;5066999;28;20051;-69
2022/04/17 13:42:38;;;;;;;4.15;2.20;;;;;;;;;;5067487;28;20057;-67
2022/04/17 13:45:05;;;;;;;6.38;2.40;;;;;;;;;;5068310;28;20179;-68
2022/04/17 13:47:32;;;;;;;6.18;2.53;;;;;;;;;;5067384;28;20132;-68
2022/04/17 13:49:58;;;;;;;4.55;2.50;;;;;;;;;;5067420;28;20056;-68
2022/04/17 13:52:25;;;;;;;5.70;2.78;;;;;;;;;;5067231;28;20499;-68
2022/04/17 13:54:53;;;;;;;5.38;2.70;;;;;;;;;;5067604;28;20057;-69
2022/04/17 13:57:20;;;;;;;5.93;2.65;;;;;;;;;;5067069;28;20056;-68
2022/04/17 13:59:46;;;;;;;7.15;2.45;;;;;;;;;;5067533;28;20147;-68
2022/04/17 14:02:13;;;;;;;6.60;2.85;;;;;;;;;;5067245;28;20063;-68
2022/04/17 14:04:40;;;;;;;7.07;2.77;;;;;;;;;;5066797;28;20059;-68
2022/04/17 14:07:10;;;;;;;6.45;2.78;;;;;;;;;;5067393;28;20136;-68
2022/04/17 14:09:36;;;;;;;4.70;2.70;;;;;;;;;;5067351;28;20148;-68
2022/04/17 14:12:04;;;;;;;6.63;3.00;;;;;;;;;;5067339;28;20503;-68
2022/04/17 14:14:30;;;;;;;7.13;3.03;;;;;;;;;;5066277;28;20056;-68
2022/04/17 14:16:56;;;;;;;5.72;2.70;;;;;;;;;;5067177;28;20152;-68
2022/04/17 14:19:23;;;;;;;7.95;2.97;;;;;;;;;;5067275;28;20527;-68
2022/04/17 14:21:49;;;;;;;6.05;2.80;;;;;;;;;;5066977;28;20083;-69
2022/04/17 14:24:15;;;;;;;7.10;2.80;;;;;;;;;;5067006;28;20072;-69
2022/04/17 14:26:42;;;;;;;7.75;2.70;;;;;;;;;;5066858;28;20502;-68
2022/04/17 14:29:08;;;;;;;4.95;2.47;;;;;;;;;;5067096;28;20102;-68
2022/04/17 14:31:34;;;;;;;7.07;3.17;;;;;;;;;;5066774;28;20057;-68
2022/04/17 14:34:01;;;;;;;4.78;2.40;;;;;;;;;;5067160;28;20063;-68
2022/04/17 14:36:27;;;;;;;4.20;2.10;;;;;;;;;;5067324;28;20063;-68
2022/04/17 14:38:55;;;;;;;6.07;2.42;;;;;;;;;;5067244;28;20172;-68
2022/04/17 14:41:21;;;;;;;4.78;2.35;;;;;;;;;;5066761;28;20056;-68
2022/04/17 14:43:47;;;;;;;4.90;2.33;;;;;;;;;;5066735;28;20512;-68
2022/04/17 14:46:15;;;;;;;6.40;2.28;;;;;;;;;;5065904;28;20136;-68
2022/04/17 14:48:41;;;;;;;6.22;2.85;;;;;;;;;;5066472;28;20885;-68
2022/04/17 14:51:08;;;;;;;4.75;2.58;;;;;;;;;;5066707;28;20132;-68
2022/04/17 14:53:35;;;;;;;5.35;2.80;;;;;;;;;;5066777;28;20184;-68
2022/04/17 14:56:02;;;;;;;5.93;3.00;;;;;;;;;;5067171;28;20442;-68
2022/04/17 14:58:29;;;;;;;7.60;2.58;;;;;;;;;;5066468;28;20056;-68